sensor_id;sensor_type;location;lat;lon;timestamp;pressure;altitude;pressure_sealevel;temperature;humidity
62946;BME280;52164;52.212;-1.010;2022-07-18T00:01:00;101225.64;;;20.61;38.82
62946;BME280;52164;52.212;-1.010;2022-07-18T00:03:26;101224.75;;;20.55;38.58
62946;BME280;52164;52.212;-1.010;2022-07-18T00:05:52;101224.89;;;20.50;38.91
62946;BME280;52164;52.212;-1.010;2022-07-18T00:08:17;101225.61;;;20.44;39.65
62946;BME280;52164;52.212;-1.010;2022-07-18T00:10:43;101225.27;;;20.37;40.21
62946;BME280;52164;52.212;-1.010;2022-07-18T00:13:09;101226.01;;;20.31;40.89
62946;BME280;52164;52.212;-1.010;2022-07-18T00:15:36;101225.47;;;20.25;41.22
62946;BME280;52164;52.212;-1.010;2022-07-18T00:18:02;101219.33;;;20.17;41.39
62946;BME280;52164;52.212;-1.010;2022-07-18T00:20:29;101215.17;;;20.10;41.56
62946;BME280;52164;52.212;-1.010;2022-07-18T00:22:55;101215.88;;;20.04;41.58
62946;BME280;52164;52.212;-1.010;2022-07-18T00:25:21;101216.73;;;20.00;42.11
62946;BME280;52164;52.212;-1.010;2022-07-18T00:27:47;101217.10;;;19.94;42.56
62946;BME280;52164;52.212;-1.010;2022-07-18T00:30:12;101215.24;;;19.88;42.32
62946;BME280;52164;52.212;-1.010;2022-07-18T00:32:38;101214.44;;;19.85;42.12
62946;BME280;52164;52.212;-1.010;2022-07-18T00:35:04;101212.58;;;19.79;42.73
62946;BME280;52164;52.212;-1.010;2022-07-18T00:37:30;101208.23;;;19.72;43.17
62946;BME280;52164;52.212;-1.010;2022-07-18T00:39:55;101215.86;;;19.64;43.30
62946;BME280;52164;52.212;-1.010;2022-07-18T00:42:21;101216.61;;;19.56;43.63
62946;BME280;52164;52.212;-1.010;2022-07-18T00:44:46;101217.77;;;19.46;43.87
62946;BME280;52164;52.212;-1.010;2022-07-18T00:47:12;101213.67;;;19.36;43.95
62946;BME280;52164;52.212;-1.010;2022-07-18T00:49:37;101212.47;;;19.27;43.92
62946;BME280;52164;52.212;-1.010;2022-07-18T00:52:04;101210.30;;;19.19;43.46
62946;BME280;52164;52.212;-1.010;2022-07-18T00:54:29;101212.02;;;19.16;42.99
62946;BME280;52164;52.212;-1.010;2022-07-18T00:56:58;101210.48;;;19.11;42.55
62946;BME280;52164;52.212;-1.010;2022-07-18T00:59:25;101208.20;;;19.09;42.51
62946;BME280;52164;52.212;-1.010;2022-07-18T01:02:10;101206.83;;;19.06;43.51
62946;BME280;52164;52.212;-1.010;2022-07-18T01:04:36;101211.98;;;19.03;44.36
62946;BME280;52164;52.212;-1.010;2022-07-18T01:07:01;101208.65;;;18.97;44.49
62946;BME280;52164;52.212;-1.010;2022-07-18T01:09:27;101214.52;;;18.94;43.18
62946;BME280;52164;52.212;-1.010;2022-07-18T01:11:52;101210.25;;;18.91;42.74
62946;BME280;52164;52.212;-1.010;2022-07-18T01:14:18;101208.80;;;18.91;42.53
62946;BME280;52164;52.212;-1.010;2022-07-18T01:16:43;101211.35;;;18.90;42.75
62946;BME280;52164;52.212;-1.010;2022-07-18T01:19:09;101212.11;;;18.89;43.15
62946;BME280;52164;52.212;-1.010;2022-07-18T01:21:35;101209.99;;;18.86;43.19
62946;BME280;52164;52.212;-1.010;2022-07-18T01:24:02;101210.27;;;18.80;43.62
62946;BME280;52164;52.212;-1.010;2022-07-18T01:26:28;101208.42;;;18.75;44.25
62946;BME280;52164;52.212;-1.010;2022-07-18T01:28:53;101204.35;;;18.71;44.32
62946;BME280;52164;52.212;-1.010;2022-07-18T01:31:19;101206.58;;;18.68;44.56
62946;BME280;52164;52.212;-1.010;2022-07-18T01:33:47;101206.13;;;18.65;44.49
62946;BME280;52164;52.212;-1.010;2022-07-18T01:36:13;101203.82;;;18.63;44.47
62946;BME280;52164;52.212;-1.010;2022-07-18T01:38:39;101200.42;;;18.61;44.06
62946;BME280;52164;52.212;-1.010;2022-07-18T01:41:04;101203.70;;;18.60;43.15
62946;BME280;52164;52.212;-1.010;2022-07-18T01:43:31;101200.42;;;18.61;43.00
62946;BME280;52164;52.212;-1.010;2022-07-18T01:45:57;101197.88;;;18.61;42.91
62946;BME280;52164;52.212;-1.010;2022-07-18T01:48:23;101195.67;;;18.63;42.63
62946;BME280;52164;52.212;-1.010;2022-07-18T01:50:50;101189.91;;;18.62;42.85
62946;BME280;52164;52.212;-1.010;2022-07-18T01:53:16;101183.65;;;18.59;43.98
62946;BME280;52164;52.212;-1.010;2022-07-18T01:55:41;101187.73;;;18.54;44.37
62946;BME280;52164;52.212;-1.010;2022-07-18T01:58:07;101192.90;;;18.50;43.86
62946;BME280;52164;52.212;-1.010;2022-07-18T02:00:32;101189.17;;;18.47;43.67
62946;BME280;52164;52.212;-1.010;2022-07-18T02:02:58;101188.11;;;18.45;43.59
62946;BME280;52164;52.212;-1.010;2022-07-18T02:05:24;101191.02;;;18.44;43.63
62946;BME280;52164;52.212;-1.010;2022-07-18T02:07:49;101184.23;;;18.40;43.61
62946;BME280;52164;52.212;-1.010;2022-07-18T02:10:18;101187.03;;;18.37;44.49
62946;BME280;52164;52.212;-1.010;2022-07-18T02:12:44;101185.87;;;18.32;45.50
62946;BME280;52164;52.212;-1.010;2022-07-18T02:15:11;101184.63;;;18.23;45.32
62946;BME280;52164;52.212;-1.010;2022-07-18T02:17:38;101189.52;;;18.13;45.42
62946;BME280;52164;52.212;-1.010;2022-07-18T02:20:05;101193.17;;;18.02;45.57
62946;BME280;52164;52.212;-1.010;2022-07-18T02:22:32;101190.13;;;17.91;45.57
62946;BME280;52164;52.212;-1.010;2022-07-18T02:24:57;101192.25;;;17.83;45.71
62946;BME280;52164;52.212;-1.010;2022-07-18T02:27:23;101190.78;;;17.75;46.48
62946;BME280;52164;52.212;-1.010;2022-07-18T02:29:49;101189.64;;;17.68;47.16
62946;BME280;52164;52.212;-1.010;2022-07-18T02:32:15;101187.94;;;17.62;47.64
62946;BME280;52164;52.212;-1.010;2022-07-18T02:34:40;101184.97;;;17.57;48.02
62946;BME280;52164;52.212;-1.010;2022-07-18T02:37:06;101182.36;;;17.51;48.24
62946;BME280;52164;52.212;-1.010;2022-07-18T02:39:31;101183.00;;;17.46;48.35
62946;BME280;52164;52.212;-1.010;2022-07-18T02:41:57;101178.92;;;17.42;48.75
62946;BME280;52164;52.212;-1.010;2022-07-18T02:44:23;101175.21;;;17.37;48.84
62946;BME280;52164;52.212;-1.010;2022-07-18T02:46:49;101178.89;;;17.34;48.89
62946;BME280;52164;52.212;-1.010;2022-07-18T02:49:15;101171.91;;;17.30;49.09
62946;BME280;52164;52.212;-1.010;2022-07-18T02:51:59;101171.27;;;17.25;49.27
62946;BME280;52164;52.212;-1.010;2022-07-18T02:54:26;101172.55;;;17.24;49.23
62946;BME280;52164;52.212;-1.010;2022-07-18T02:56:52;101168.44;;;17.22;49.54
62946;BME280;52164;52.212;-1.010;2022-07-18T02:59:18;101162.48;;;17.23;49.59
62946;BME280;52164;52.212;-1.010;2022-07-18T03:01:43;101154.73;;;17.22;49.67
62946;BME280;52164;52.212;-1.010;2022-07-18T03:04:09;101156.03;;;17.20;49.68
62946;BME280;52164;52.212;-1.010;2022-07-18T03:06:35;101154.25;;;17.19;49.67
62946;BME280;52164;52.212;-1.010;2022-07-18T03:09:00;101152.46;;;17.17;50.16
62946;BME280;52164;52.212;-1.010;2022-07-18T03:11:26;101150.33;;;17.16;50.45
62946;BME280;52164;52.212;-1.010;2022-07-18T03:13:52;101149.27;;;17.15;50.67
62946;BME280;52164;52.212;-1.010;2022-07-18T03:16:17;101148.41;;;17.12;50.71
62946;BME280;52164;52.212;-1.010;2022-07-18T03:18:43;101144.31;;;17.09;50.57
62946;BME280;52164;52.212;-1.010;2022-07-18T03:21:09;101142.77;;;17.04;50.50
62946;BME280;52164;52.212;-1.010;2022-07-18T03:23:35;101139.04;;;17.00;50.58
62946;BME280;52164;52.212;-1.010;2022-07-18T03:26:00;101138.23;;;16.95;50.69
62946;BME280;52164;52.212;-1.010;2022-07-18T03:28:25;101136.50;;;16.91;50.64
62946;BME280;52164;52.212;-1.010;2022-07-18T03:30:51;101129.34;;;16.85;50.76
62946;BME280;52164;52.212;-1.010;2022-07-18T03:33:17;101127.97;;;16.81;50.47
62946;BME280;52164;52.212;-1.010;2022-07-18T03:35:43;101123.16;;;16.77;50.69
62946;BME280;52164;52.212;-1.010;2022-07-18T03:38:08;101121.77;;;16.74;50.86
62946;BME280;52164;52.212;-1.010;2022-07-18T03:40:34;101119.09;;;16.73;51.01
62946;BME280;52164;52.212;-1.010;2022-07-18T03:43:00;101117.11;;;16.73;51.06
62946;BME280;52164;52.212;-1.010;2022-07-18T03:45:25;101114.04;;;16.73;51.14
62946;BME280;52164;52.212;-1.010;2022-07-18T03:47:51;101114.94;;;16.73;51.00
62946;BME280;52164;52.212;-1.010;2022-07-18T03:50:17;101107.91;;;16.72;50.93
62946;BME280;52164;52.212;-1.010;2022-07-18T03:52:42;101101.98;;;16.71;50.90
62946;BME280;52164;52.212;-1.010;2022-07-18T03:55:08;101107.00;;;16.73;51.12
62946;BME280;52164;52.212;-1.010;2022-07-18T03:57:34;101100.46;;;16.76;51.01
62946;BME280;52164;52.212;-1.010;2022-07-18T04:00:00;101095.38;;;16.79;50.77
62946;BME280;52164;52.212;-1.010;2022-07-18T04:02:25;101097.29;;;16.84;50.59
62946;BME280;52164;52.212;-1.010;2022-07-18T04:04:51;101092.20;;;16.86;50.39
62946;BME280;52164;52.212;-1.010;2022-07-18T04:07:17;101092.40;;;16.87;50.36
62946;BME280;52164;52.212;-1.010;2022-07-18T04:09:42;101089.31;;;16.86;50.90
62946;BME280;52164;52.212;-1.010;2022-07-18T04:12:08;101093.46;;;16.87;50.76
62946;BME280;52164;52.212;-1.010;2022-07-18T04:14:33;101088.58;;;16.89;50.77
62946;BME280;52164;52.212;-1.010;2022-07-18T04:16:59;101088.71;;;16.92;50.61
62946;BME280;52164;52.212;-1.010;2022-07-18T04:19:24;101088.48;;;16.95;50.69
62946;BME280;52164;52.212;-1.010;2022-07-18T04:21:50;101084.81;;;16.98;50.39
62946;BME280;52164;52.212;-1.010;2022-07-18T04:24:16;101084.20;;;17.02;49.65
62946;BME280;52164;52.212;-1.010;2022-07-18T04:26:41;101086.13;;;17.05;49.16
62946;BME280;52164;52.212;-1.010;2022-07-18T04:29:07;101083.49;;;17.11;48.95
62946;BME280;52164;52.212;-1.010;2022-07-18T04:31:33;101081.22;;;17.17;49.61
62946;BME280;52164;52.212;-1.010;2022-07-18T04:33:59;101079.73;;;17.20;50.18
62946;BME280;52164;52.212;-1.010;2022-07-18T04:36:24;101079.16;;;17.22;50.29
62946;BME280;52164;52.212;-1.010;2022-07-18T04:38:51;101077.33;;;17.23;50.40
62946;BME280;52164;52.212;-1.010;2022-07-18T04:41:16;101072.27;;;17.24;51.06
62946;BME280;52164;52.212;-1.010;2022-07-18T04:43:45;101073.35;;;17.24;51.30
62946;BME280;52164;52.212;-1.010;2022-07-18T04:46:10;101074.45;;;17.23;51.28
62946;BME280;52164;52.212;-1.010;2022-07-18T04:48:36;101078.50;;;17.19;51.20
62946;BME280;52164;52.212;-1.010;2022-07-18T04:51:04;101079.27;;;17.06;51.04
62946;BME280;52164;52.212;-1.010;2022-07-18T04:53:30;101077.70;;;16.92;51.69
62946;BME280;52164;52.212;-1.010;2022-07-18T04:55:55;101081.95;;;16.85;52.06
62946;BME280;52164;52.212;-1.010;2022-07-18T04:58:21;101082.63;;;16.76;52.41
62946;BME280;52164;52.212;-1.010;2022-07-18T05:00:47;101077.98;;;16.73;52.60
62946;BME280;52164;52.212;-1.010;2022-07-18T05:03:13;101083.95;;;16.71;52.95
62946;BME280;52164;52.212;-1.010;2022-07-18T05:05:39;101078.03;;;16.70;53.03
62946;BME280;52164;52.212;-1.010;2022-07-18T05:08:05;101085.27;;;16.70;53.15
62946;BME280;52164;52.212;-1.010;2022-07-18T05:10:31;101082.87;;;16.71;53.12
62946;BME280;52164;52.212;-1.010;2022-07-18T05:12:57;101086.08;;;16.75;53.23
62946;BME280;52164;52.212;-1.010;2022-07-18T05:15:24;101086.90;;;16.80;53.29
62946;BME280;52164;52.212;-1.010;2022-07-18T05:17:50;101088.98;;;16.84;53.37
62946;BME280;52164;52.212;-1.010;2022-07-18T05:20:19;101080.63;;;16.90;53.19
62946;BME280;52164;52.212;-1.010;2022-07-18T05:22:46;101078.57;;;16.95;53.33
62946;BME280;52164;52.212;-1.010;2022-07-18T05:25:13;101076.11;;;17.00;53.29
62946;BME280;52164;52.212;-1.010;2022-07-18T05:27:39;101080.68;;;17.07;53.23
62946;BME280;52164;52.212;-1.010;2022-07-18T05:30:07;101075.48;;;17.16;53.26
62946;BME280;52164;52.212;-1.010;2022-07-18T05:32:33;101079.50;;;17.23;53.36
62946;BME280;52164;52.212;-1.010;2022-07-18T05:34:59;101074.66;;;17.30;53.08
62946;BME280;52164;52.212;-1.010;2022-07-18T05:37:25;101071.29;;;17.37;52.89
62946;BME280;52164;52.212;-1.010;2022-07-18T05:39:50;101069.50;;;17.46;52.94
62946;BME280;52164;52.212;-1.010;2022-07-18T05:42:18;101065.39;;;17.53;52.94
62946;BME280;52164;52.212;-1.010;2022-07-18T05:44:44;101060.90;;;17.61;52.87
62946;BME280;52164;52.212;-1.010;2022-07-18T05:47:09;101058.01;;;17.70;53.11
62946;BME280;52164;52.212;-1.010;2022-07-18T05:49:35;101057.08;;;17.80;53.09
62946;BME280;52164;52.212;-1.010;2022-07-18T05:52:01;101053.23;;;17.92;52.91
62946;BME280;52164;52.212;-1.010;2022-07-18T05:54:26;101051.52;;;18.05;52.17
62946;BME280;52164;52.212;-1.010;2022-07-18T05:56:52;101053.56;;;18.18;51.26
62946;BME280;52164;52.212;-1.010;2022-07-18T05:59:19;101053.82;;;18.31;50.46
62946;BME280;52164;52.212;-1.010;2022-07-18T06:01:45;101052.79;;;18.43;50.34
62946;BME280;52164;52.212;-1.010;2022-07-18T06:04:10;101051.80;;;18.55;49.82
62946;BME280;52164;52.212;-1.010;2022-07-18T06:06:36;101052.26;;;18.65;49.68
62946;BME280;52164;52.212;-1.010;2022-07-18T06:09:03;101052.73;;;18.76;49.75
62946;BME280;52164;52.212;-1.010;2022-07-18T06:11:29;101052.14;;;18.85;49.58
62946;BME280;52164;52.212;-1.010;2022-07-18T06:13:55;101050.86;;;18.93;49.67
62946;BME280;52164;52.212;-1.010;2022-07-18T06:16:21;101047.73;;;19.02;49.43
62946;BME280;52164;52.212;-1.010;2022-07-18T06:18:46;101047.13;;;19.11;49.28
62946;BME280;52164;52.212;-1.010;2022-07-18T06:21:12;101045.61;;;19.21;49.45
62946;BME280;52164;52.212;-1.010;2022-07-18T06:23:37;101036.48;;;19.30;49.34
62946;BME280;52164;52.212;-1.010;2022-07-18T06:26:04;101037.64;;;19.41;49.62
62946;BME280;52164;52.212;-1.010;2022-07-18T06:28:30;101039.33;;;19.51;49.43
62946;BME280;52164;52.212;-1.010;2022-07-18T06:30:56;101037.76;;;19.62;49.39
62946;BME280;52164;52.212;-1.010;2022-07-18T06:33:22;101036.02;;;19.72;49.21
62946;BME280;52164;52.212;-1.010;2022-07-18T06:35:48;101035.91;;;19.82;48.52
62946;BME280;52164;52.212;-1.010;2022-07-18T06:38:15;101034.52;;;19.93;48.21
62946;BME280;52164;52.212;-1.010;2022-07-18T06:40:41;101034.53;;;20.04;47.92
62946;BME280;52164;52.212;-1.010;2022-07-18T06:43:07;101032.58;;;20.15;47.21
62946;BME280;52164;52.212;-1.010;2022-07-18T06:45:33;101036.95;;;20.25;46.63
62946;BME280;52164;52.212;-1.010;2022-07-18T06:47:59;101036.58;;;20.37;46.50
62946;BME280;52164;52.212;-1.010;2022-07-18T06:50:24;101036.21;;;20.48;45.95
62946;BME280;52164;52.212;-1.010;2022-07-18T06:52:51;101035.69;;;20.59;45.63
62946;BME280;52164;52.212;-1.010;2022-07-18T06:55:17;101033.19;;;20.70;45.63
62946;BME280;52164;52.212;-1.010;2022-07-18T06:57:44;101040.23;;;20.81;45.52
62946;BME280;52164;52.212;-1.010;2022-07-18T07:00:12;101039.73;;;20.90;45.43
62946;BME280;52164;52.212;-1.010;2022-07-18T07:02:44;101041.03;;;21.00;45.03
62946;BME280;52164;52.212;-1.010;2022-07-18T07:05:10;101041.74;;;21.11;45.00
62946;BME280;52164;52.212;-1.010;2022-07-18T07:07:36;101038.45;;;21.21;44.83
62946;BME280;52164;52.212;-1.010;2022-07-18T07:10:02;101037.36;;;21.32;44.42
62946;BME280;52164;52.212;-1.010;2022-07-18T07:12:28;101031.50;;;21.43;43.88
62946;BME280;52164;52.212;-1.010;2022-07-18T07:14:53;101029.51;;;21.54;43.61
62946;BME280;52164;52.212;-1.010;2022-07-18T07:17:19;101028.58;;;21.64;43.61
62946;BME280;52164;52.212;-1.010;2022-07-18T07:19:45;101030.17;;;21.74;43.05
62946;BME280;52164;52.212;-1.010;2022-07-18T07:22:10;101033.96;;;21.85;42.94
62946;BME280;52164;52.212;-1.010;2022-07-18T07:24:36;101031.63;;;21.93;42.74
62946;BME280;52164;52.212;-1.010;2022-07-18T07:27:04;101030.91;;;22.03;42.68
62946;BME280;52164;52.212;-1.010;2022-07-18T07:29:29;101029.08;;;22.12;42.40
62946;BME280;52164;52.212;-1.010;2022-07-18T07:31:55;101032.16;;;22.21;42.22
62946;BME280;52164;52.212;-1.010;2022-07-18T07:34:20;101029.63;;;22.30;42.00
62946;BME280;52164;52.212;-1.010;2022-07-18T07:36:46;101030.95;;;22.39;41.64
62946;BME280;52164;52.212;-1.010;2022-07-18T07:39:12;101030.86;;;22.45;41.82
62946;BME280;52164;52.212;-1.010;2022-07-18T07:41:37;101030.28;;;22.55;41.34
62946;BME280;52164;52.212;-1.010;2022-07-18T07:44:03;101031.69;;;22.65;41.23
62946;BME280;52164;52.212;-1.010;2022-07-18T07:46:29;101036.54;;;22.75;40.83
62946;BME280;52164;52.212;-1.010;2022-07-18T07:48:55;101038.30;;;22.85;40.76
62946;BME280;52164;52.212;-1.010;2022-07-18T07:51:20;101036.54;;;22.96;40.42
62946;BME280;52164;52.212;-1.010;2022-07-18T07:53:46;101037.73;;;23.07;40.54
62946;BME280;52164;52.212;-1.010;2022-07-18T07:56:11;101036.96;;;23.17;40.51
62946;BME280;52164;52.212;-1.010;2022-07-18T07:58:37;101031.36;;;23.28;40.21
62946;BME280;52164;52.212;-1.010;2022-07-18T08:01:02;101034.11;;;23.40;39.93
62946;BME280;52164;52.212;-1.010;2022-07-18T08:03:28;101033.01;;;23.52;40.00
62946;BME280;52164;52.212;-1.010;2022-07-18T08:05:55;101032.67;;;23.63;39.51
62946;BME280;52164;52.212;-1.010;2022-07-18T08:08:20;101030.72;;;23.74;39.34
62946;BME280;52164;52.212;-1.010;2022-07-18T08:10:46;101027.48;;;23.85;39.23
62946;BME280;52164;52.212;-1.010;2022-07-18T08:13:13;101028.23;;;23.97;39.10
62946;BME280;52164;52.212;-1.010;2022-07-18T08:15:39;101028.39;;;24.09;38.84
62946;BME280;52164;52.212;-1.010;2022-07-18T08:18:05;101031.31;;;24.20;38.85
62946;BME280;52164;52.212;-1.010;2022-07-18T08:20:31;101035.37;;;24.30;38.67
62946;BME280;52164;52.212;-1.010;2022-07-18T08:23:02;101035.41;;;24.40;38.43
62946;BME280;52164;52.212;-1.010;2022-07-18T08:25:30;101036.89;;;24.51;38.22
62946;BME280;52164;52.212;-1.010;2022-07-18T08:27:57;101033.42;;;24.59;38.09
62946;BME280;52164;52.212;-1.010;2022-07-18T08:30:23;101029.25;;;24.70;37.89
62946;BME280;52164;52.212;-1.010;2022-07-18T08:32:48;101028.20;;;24.79;37.75
62946;BME280;52164;52.212;-1.010;2022-07-18T08:35:15;101023.52;;;24.89;37.43
62946;BME280;52164;52.212;-1.010;2022-07-18T08:37:41;101022.30;;;24.98;37.39
62946;BME280;52164;52.212;-1.010;2022-07-18T08:40:07;101018.13;;;25.08;37.40
62946;BME280;52164;52.212;-1.010;2022-07-18T08:42:34;101012.64;;;25.19;37.31
62946;BME280;52164;52.212;-1.010;2022-07-18T08:45:00;101008.77;;;25.30;37.15
62946;BME280;52164;52.212;-1.010;2022-07-18T08:47:28;101012.05;;;25.41;36.60
62946;BME280;52164;52.212;-1.010;2022-07-18T08:49:55;101008.79;;;25.50;36.69
62946;BME280;52164;52.212;-1.010;2022-07-18T08:52:21;101008.26;;;25.60;36.28
62946;BME280;52164;52.212;-1.010;2022-07-18T08:54:47;101006.34;;;25.68;35.65
62946;BME280;52164;52.212;-1.010;2022-07-18T08:57:15;101004.39;;;25.77;35.55
62946;BME280;52164;52.212;-1.010;2022-07-18T08:59:41;100998.77;;;25.86;35.45
62946;BME280;52164;52.212;-1.010;2022-07-18T09:02:07;100999.29;;;25.96;35.32
62946;BME280;52164;52.212;-1.010;2022-07-18T09:04:42;100997.04;;;26.07;35.32
62946;BME280;52164;52.212;-1.010;2022-07-18T09:07:10;100993.83;;;26.19;34.93
62946;BME280;52164;52.212;-1.010;2022-07-18T09:09:56;100988.48;;;26.29;34.73
62946;BME280;52164;52.212;-1.010;2022-07-18T09:12:28;100989.59;;;26.41;34.74
62946;BME280;52164;52.212;-1.010;2022-07-18T09:14:54;100984.23;;;26.51;34.10
62946;BME280;52164;52.212;-1.010;2022-07-18T09:17:22;100986.56;;;26.62;34.22
62946;BME280;52164;52.212;-1.010;2022-07-18T09:20:04;100983.31;;;26.74;34.30
62946;BME280;52164;52.212;-1.010;2022-07-18T09:22:33;100984.13;;;26.87;34.12
62946;BME280;52164;52.212;-1.010;2022-07-18T09:27:58;100980.98;;;27.15;33.70
62946;BME280;52164;52.212;-1.010;2022-07-18T09:30:31;100975.67;;;27.30;33.22
62946;BME280;52164;52.212;-1.010;2022-07-18T09:33:08;100979.85;;;27.45;32.93
62946;BME280;52164;52.212;-1.010;2022-07-18T09:35:42;100978.89;;;27.57;33.13
62946;BME280;52164;52.212;-1.010;2022-07-18T09:38:14;100975.88;;;27.70;32.56
62946;BME280;52164;52.212;-1.010;2022-07-18T09:40:42;100976.92;;;27.82;32.58
62946;BME280;52164;52.212;-1.010;2022-07-18T09:43:11;100976.90;;;27.94;32.43
62946;BME280;52164;52.212;-1.010;2022-07-18T09:45:45;100975.52;;;28.07;32.41
62946;BME280;52164;52.212;-1.010;2022-07-18T09:48:17;100976.65;;;28.21;32.08
62946;BME280;52164;52.212;-1.010;2022-07-18T09:51:02;100977.10;;;28.33;31.88
62946;BME280;52164;52.212;-1.010;2022-07-18T09:53:44;100973.66;;;28.46;31.40
62946;BME280;52164;52.212;-1.010;2022-07-18T09:56:13;100973.84;;;28.57;31.13
62946;BME280;52164;52.212;-1.010;2022-07-18T09:58:52;100971.27;;;28.65;30.99
62946;BME280;52164;52.212;-1.010;2022-07-18T10:01:18;100970.91;;;28.76;30.93
62946;BME280;52164;52.212;-1.010;2022-07-18T10:03:44;100970.10;;;28.88;30.89
62946;BME280;52164;52.212;-1.010;2022-07-18T10:06:10;100965.98;;;29.02;31.00
62946;BME280;52164;52.212;-1.010;2022-07-18T10:08:36;100967.64;;;29.15;30.55
62946;BME280;52164;52.212;-1.010;2022-07-18T10:11:04;100963.98;;;29.28;30.36
62946;BME280;52164;52.212;-1.010;2022-07-18T10:13:33;100965.13;;;29.41;30.00
62946;BME280;52164;52.212;-1.010;2022-07-18T10:15:59;100963.70;;;29.53;29.94
62946;BME280;52164;52.212;-1.010;2022-07-18T10:18:31;100957.96;;;29.66;29.67
62946;BME280;52164;52.212;-1.010;2022-07-18T10:21:06;100958.44;;;29.79;29.38
62946;BME280;52164;52.212;-1.010;2022-07-18T10:23:41;100956.87;;;29.91;29.53
62946;BME280;52164;52.212;-1.010;2022-07-18T10:26:18;100955.77;;;30.06;29.45
62946;BME280;52164;52.212;-1.010;2022-07-18T10:31:32;100950.45;;;30.30;29.11
62946;BME280;52164;52.212;-1.010;2022-07-18T10:34:12;100948.05;;;30.43;29.10
62946;BME280;52164;52.212;-1.010;2022-07-18T10:36:40;100949.12;;;30.55;28.55
62946;BME280;52164;52.212;-1.010;2022-07-18T10:39:13;100951.20;;;30.66;28.67
62946;BME280;52164;52.212;-1.010;2022-07-18T10:44:32;100945.10;;;30.88;28.51
62946;BME280;52164;52.212;-1.010;2022-07-18T10:47:13;100944.16;;;31.02;28.03
62946;BME280;52164;52.212;-1.010;2022-07-18T10:55:25;100944.93;;;31.48;27.99
62946;BME280;52164;52.212;-1.010;2022-07-18T11:00:27;100940.67;;;31.80;27.30
62946;BME280;52164;52.212;-1.010;2022-07-18T11:03:07;100940.27;;;31.96;27.45
62946;BME280;52164;52.212;-1.010;2022-07-18T11:13:33;100938.64;;;32.38;26.21
62946;BME280;52164;52.212;-1.010;2022-07-18T11:21:21;100937.29;;;32.69;25.94
62946;BME280;52164;52.212;-1.010;2022-07-18T11:23:51;100937.06;;;32.80;25.80
62946;BME280;52164;52.212;-1.010;2022-07-18T11:26:19;100939.98;;;32.89;25.46
62946;BME280;52164;52.212;-1.010;2022-07-18T11:28:47;100938.56;;;32.99;25.25
62946;BME280;52164;52.212;-1.010;2022-07-18T11:31:14;100938.01;;;33.12;25.21
62946;BME280;52164;52.212;-1.010;2022-07-18T11:33:46;100931.56;;;33.24;24.91
62946;BME280;52164;52.212;-1.010;2022-07-18T11:36:15;100927.11;;;33.37;25.01
62946;BME280;52164;52.212;-1.010;2022-07-18T11:41:15;100927.21;;;33.70;24.73
62946;BME280;52164;52.212;-1.010;2022-07-18T11:43:43;100926.44;;;33.92;24.37
62946;BME280;52164;52.212;-1.010;2022-07-18T11:46:11;100928.22;;;34.06;24.01
62946;BME280;52164;52.212;-1.010;2022-07-18T11:48:38;100921.45;;;34.17;24.20
62946;BME280;52164;52.212;-1.010;2022-07-18T11:51:14;100918.38;;;34.35;24.25
62946;BME280;52164;52.212;-1.010;2022-07-18T11:53:45;100917.99;;;34.54;23.63
62946;BME280;52164;52.212;-1.010;2022-07-18T11:56:11;100913.92;;;34.70;23.64
62946;BME280;52164;52.212;-1.010;2022-07-18T11:58:38;100914.81;;;34.86;23.39
62946;BME280;52164;52.212;-1.010;2022-07-18T12:01:05;100909.17;;;35.06;23.43
62946;BME280;52164;52.212;-1.010;2022-07-18T12:03:34;100907.78;;;35.28;23.39
62946;BME280;52164;52.212;-1.010;2022-07-18T12:06:12;100906.77;;;35.42;22.73
62946;BME280;52164;52.212;-1.010;2022-07-18T12:08:42;100907.55;;;35.53;22.52
62946;BME280;52164;52.212;-1.010;2022-07-18T12:11:31;100904.22;;;35.58;22.30
62946;BME280;52164;52.212;-1.010;2022-07-18T12:16:33;100902.52;;;35.70;21.85
62946;BME280;52164;52.212;-1.010;2022-07-18T12:19:04;100903.48;;;35.77;21.52
62946;BME280;52164;52.212;-1.010;2022-07-18T12:21:51;100903.71;;;35.88;21.17
62946;BME280;52164;52.212;-1.010;2022-07-18T12:24:35;100899.86;;;36.02;21.49
62946;BME280;52164;52.212;-1.010;2022-07-18T12:27:20;100900.99;;;36.20;21.47
62946;BME280;52164;52.212;-1.010;2022-07-18T12:32:41;100890.85;;;36.36;20.86
62946;BME280;52164;52.212;-1.010;2022-07-18T12:35:22;100889.54;;;36.41;20.81
62946;BME280;52164;52.212;-1.010;2022-07-18T12:38:02;100883.69;;;36.46;20.83
62946;BME280;52164;52.212;-1.010;2022-07-18T12:40:46;100887.02;;;36.53;20.45
62946;BME280;52164;52.212;-1.010;2022-07-18T12:45:40;100882.98;;;36.69;20.61
62946;BME280;52164;52.212;-1.010;2022-07-18T12:48:08;100875.92;;;36.78;20.42
62946;BME280;52164;52.212;-1.010;2022-07-18T12:50:35;100875.35;;;36.89;20.62
62946;BME280;52164;52.212;-1.010;2022-07-18T12:53:00;100869.73;;;37.01;20.20
62946;BME280;52164;52.212;-1.010;2022-07-18T12:55:26;100867.34;;;37.07;20.13
62946;BME280;52164;52.212;-1.010;2022-07-18T12:57:52;100869.86;;;37.14;20.26
62946;BME280;52164;52.212;-1.010;2022-07-18T13:00:18;100870.11;;;37.20;20.19
62946;BME280;52164;52.212;-1.010;2022-07-18T13:02:44;100866.23;;;37.29;20.01
62946;BME280;52164;52.212;-1.010;2022-07-18T13:05:10;100860.88;;;37.32;19.50
62946;BME280;52164;52.212;-1.010;2022-07-18T13:07:36;100861.52;;;37.35;19.79
62946;BME280;52164;52.212;-1.010;2022-07-18T13:10:02;100853.43;;;37.43;19.76
62946;BME280;52164;52.212;-1.010;2022-07-18T13:12:28;100850.08;;;37.52;19.88
62946;BME280;52164;52.212;-1.010;2022-07-18T13:14:54;100847.16;;;37.69;19.89
62946;BME280;52164;52.212;-1.010;2022-07-18T13:17:20;100847.09;;;37.75;19.63
62946;BME280;52164;52.212;-1.010;2022-07-18T13:19:46;100842.73;;;37.82;19.73
62946;BME280;52164;52.212;-1.010;2022-07-18T13:22:13;100836.95;;;37.91;19.41